sensor_id;sensor_type;location;lat;lon;timestamp;P1;durP1;ratioP1;P2;durP2;ratioP2
31298;SDS011;17927;52.350;13.402;2023-07-09T00:00:21;5.50;;;2.25;;
31298;SDS011;17927;52.350;13.402;2023-07-09T00:02:46;3.70;;;2.90;;
31298;SDS011;17927;52.350;13.402;2023-07-09T00:05:14;5.18;;;2.45;;
31298;SDS011;17927;52.350;13.402;2023-07-09T00:07:41;2.83;;;2.35;;
31298;SDS011;17927;52.350;13.402;2023-07-09T00:10:14;3.15;;;2.28;;
31298;SDS011;17927;52.350;13.402;2023-07-09T00:12:40;5.47;;;2.58;;
31298;SDS011;17927;52.350;13.402;2023-07-09T00:15:05;2.63;;;2.42;;
31298;SDS011;17927;52.350;13.402;2023-07-09T00:17:34;2.65;;;2.28;;
31298;SDS011;17927;52.350;13.402;2023-07-09T00:20:00;3.17;;;2.63;;
31298;SDS011;17927;52.350;13.402;2023-07-09T00:22:26;2.70;;;2.50;;
31298;SDS011;17927;52.350;13.402;2023-07-09T00:24:54;6.00;;;2.60;;
31298;SDS011;17927;52.350;13.402;2023-07-09T00:27:22;2.90;;;2.30;;
31298;SDS011;17927;52.350;13.402;2023-07-09T00:29:51;2.45;;;2.22;;
31298;SDS011;17927;52.350;13.402;2023-07-09T00:32:20;3.63;;;2.83;;
31298;SDS011;17927;52.350;13.402;2023-07-09T00:34:48;11.88;;;2.70;;
31298;SDS011;17927;52.350;13.402;2023-07-09T00:37:14;6.10;;;2.42;;
31298;SDS011;17927;52.350;13.402;2023-07-09T00:39:41;2.72;;;2.53;;
31298;SDS011;17927;52.350;13.402;2023-07-09T00:42:14;2.92;;;2.42;;
31298;SDS011;17927;52.350;13.402;2023-07-09T00:44:42;3.20;;;2.65;;
31298;SDS011;17927;52.350;13.402;2023-07-09T00:53:15;2.97;;;2.55;;
31298;SDS011;17927;52.350;13.402;2023-07-09T00:55:46;2.53;;;2.33;;
31298;SDS011;17927;52.350;13.402;2023-07-09T00:58:17;2.63;;;2.42;;
31298;SDS011;17927;52.350;13.402;2023-07-09T01:00:44;4.57;;;3.25;;
31298;SDS011;17927;52.350;13.402;2023-07-09T01:03:13;3.72;;;2.53;;
31298;SDS011;17927;52.350;13.402;2023-07-09T01:05:45;3.15;;;2.78;;
31298;SDS011;17927;52.350;13.402;2023-07-09T01:08:16;5.90;;;2.80;;
31298;SDS011;17927;52.350;13.402;2023-07-09T01:10:42;4.00;;;2.90;;
31298;SDS011;17927;52.350;13.402;2023-07-09T01:13:07;3.13;;;2.83;;
31298;SDS011;17927;52.350;13.402;2023-07-09T01:15:33;2.72;;;2.53;;
31298;SDS011;17927;52.350;13.402;2023-07-09T01:17:59;3.72;;;2.80;;
31298;SDS011;17927;52.350;13.402;2023-07-09T01:20:26;2.50;;;2.30;;
31298;SDS011;17927;52.350;13.402;2023-07-09T01:22:51;4.30;;;2.58;;
31298;SDS011;17927;52.350;13.402;2023-07-09T01:25:20;3.17;;;2.95;;
31298;SDS011;17927;52.350;13.402;2023-07-09T01:27:46;5.63;;;2.60;;
31298;SDS011;17927;52.350;13.402;2023-07-09T01:30:13;4.78;;;2.70;;
31298;SDS011;17927;52.350;13.402;2023-07-09T01:32:40;3.92;;;2.40;;
31298;SDS011;17927;52.350;13.402;2023-07-09T01:35:10;5.20;;;2.53;;
31298;SDS011;17927;52.350;13.402;2023-07-09T01:37:37;3.63;;;3.05;;
31298;SDS011;17927;52.350;13.402;2023-07-09T01:40:03;2.60;;;2.40;;
31298;SDS011;17927;52.350;13.402;2023-07-09T01:42:30;2.92;;;2.72;;
31298;SDS011;17927;52.350;13.402;2023-07-09T01:44:56;2.83;;;2.45;;
31298;SDS011;17927;52.350;13.402;2023-07-09T01:47:21;3.10;;;2.63;;
31298;SDS011;17927;52.350;13.402;2023-07-09T01:49:48;2.47;;;2.28;;
31298;SDS011;17927;52.350;13.402;2023-07-09T01:52:14;5.32;;;2.75;;
31298;SDS011;17927;52.350;13.402;2023-07-09T01:54:41;5.22;;;2.85;;
31298;SDS011;17927;52.350;13.402;2023-07-09T01:57:20;6.57;;;2.65;;
31298;SDS011;17927;52.350;13.402;2023-07-09T01:59:52;3.70;;;2.33;;
31298;SDS011;17927;52.350;13.402;2023-07-09T02:04:45;5.78;;;4.35;;
31298;SDS011;17927;52.350;13.402;2023-07-09T02:07:12;7.50;;;3.60;;
31298;SDS011;17927;52.350;13.402;2023-07-09T02:09:38;4.32;;;3.78;;
31298;SDS011;17927;52.350;13.402;2023-07-09T02:12:03;5.78;;;3.47;;
31298;SDS011;17927;52.350;13.402;2023-07-09T02:14:28;5.22;;;3.28;;
31298;SDS011;17927;52.350;13.402;2023-07-09T02:16:54;2.90;;;2.58;;
31298;SDS011;17927;52.350;13.402;2023-07-09T02:19:20;4.18;;;2.67;;
31298;SDS011;17927;52.350;13.402;2023-07-09T02:21:45;4.68;;;2.90;;
31298;SDS011;17927;52.350;13.402;2023-07-09T02:24:10;3.67;;;3.33;;
31298;SDS011;17927;52.350;13.402;2023-07-09T02:26:36;3.80;;;3.50;;
31298;SDS011;17927;52.350;13.402;2023-07-09T02:29:01;3.65;;;3.30;;
31298;SDS011;17927;52.350;13.402;2023-07-09T02:31:26;4.03;;;2.85;;
31298;SDS011;17927;52.350;13.402;2023-07-09T02:33:54;3.13;;;2.83;;
31298;SDS011;17927;52.350;13.402;2023-07-09T02:36:20;2.85;;;2.65;;
31298;SDS011;17927;52.350;13.402;2023-07-09T02:38:45;2.92;;;2.63;;
31298;SDS011;17927;52.350;13.402;2023-07-09T02:41:10;2.95;;;2.70;;
31298;SDS011;17927;52.350;13.402;2023-07-09T02:43:36;5.82;;;3.05;;
31298;SDS011;17927;52.350;13.402;2023-07-09T02:46:01;4.55;;;3.17;;
31298;SDS011;17927;52.350;13.402;2023-07-09T02:48:26;3.45;;;3.10;;
31298;SDS011;17927;52.350;13.402;2023-07-09T02:50:51;8.52;;;3.13;;
31298;SDS011;17927;52.350;13.402;2023-07-09T02:53:17;3.13;;;2.83;;
31298;SDS011;17927;52.350;13.402;2023-07-09T02:55:42;2.60;;;2.40;;
31298;SDS011;17927;52.350;13.402;2023-07-09T02:58:07;2.63;;;2.42;;
31298;SDS011;17927;52.350;13.402;2023-07-09T03:00:32;4.18;;;2.90;;
31298;SDS011;17927;52.350;13.402;2023-07-09T03:02:57;3.75;;;2.60;;
31298;SDS011;17927;52.350;13.402;2023-07-09T03:05:23;3.80;;;2.72;;
31298;SDS011;17927;52.350;13.402;2023-07-09T03:07:48;4.03;;;2.88;;
31298;SDS011;17927;52.350;13.402;2023-07-09T03:10:13;5.20;;;3.17;;
31298;SDS011;17927;52.350;13.402;2023-07-09T03:12:39;3.30;;;2.97;;
31298;SDS011;17927;52.350;13.402;2023-07-09T03:15:04;6.10;;;3.30;;
31298;SDS011;17927;52.350;13.402;2023-07-09T03:17:30;5.13;;;3.33;;
31298;SDS011;17927;52.350;13.402;2023-07-09T03:19:55;3.45;;;3.15;;
31298;SDS011;17927;52.350;13.402;2023-07-09T03:22:20;12.82;;;3.47;;
31298;SDS011;17927;52.350;13.402;2023-07-09T03:24:45;3.17;;;2.88;;
31298;SDS011;17927;52.350;13.402;2023-07-09T03:27:11;3.13;;;2.92;;
31298;SDS011;17927;52.350;13.402;2023-07-09T03:29:36;11.95;;;3.30;;
31298;SDS011;17927;52.350;13.402;2023-07-09T03:32:01;3.47;;;3.28;;
31298;SDS011;17927;52.350;13.402;2023-07-09T03:34:26;3.40;;;3.20;;
31298;SDS011;17927;52.350;13.402;2023-07-09T03:36:52;4.10;;;3.70;;
31298;SDS011;17927;52.350;13.402;2023-07-09T03:39:17;3.53;;;3.22;;
31298;SDS011;17927;52.350;13.402;2023-07-09T03:41:42;5.20;;;3.33;;
31298;SDS011;17927;52.350;13.402;2023-07-09T03:44:07;3.88;;;3.58;;
31298;SDS011;17927;52.350;13.402;2023-07-09T03:46:33;4.07;;;3.65;;
31298;SDS011;17927;52.350;13.402;2023-07-09T03:48:58;3.13;;;2.88;;
31298;SDS011;17927;52.350;13.402;2023-07-09T03:51:24;4.03;;;3.17;;
31298;SDS011;17927;52.350;13.402;2023-07-09T03:53:49;3.85;;;3.00;;
31298;SDS011;17927;52.350;13.402;2023-07-09T03:56:15;3.38;;;3.00;;
31298;SDS011;17927;52.350;13.402;2023-07-09T03:58:40;4.88;;;3.35;;
31298;SDS011;17927;52.350;13.402;2023-07-09T04:01:05;3.47;;;3.17;;
31298;SDS011;17927;52.350;13.402;2023-07-09T04:03:31;3.45;;;3.20;;
31298;SDS011;17927;52.350;13.402;2023-07-09T04:05:56;3.97;;;3.20;;
31298;SDS011;17927;52.350;13.402;2023-07-09T04:08:22;5.28;;;3.35;;
31298;SDS011;17927;52.350;13.402;2023-07-09T04:10:47;3.85;;;3.35;;
31298;SDS011;17927;52.350;13.402;2023-07-09T04:13:12;3.92;;;3.42;;
31298;SDS011;17927;52.350;13.402;2023-07-09T04:15:37;3.47;;;3.25;;
31298;SDS011;17927;52.350;13.402;2023-07-09T04:18:03;5.88;;;3.53;;
31298;SDS011;17927;52.350;13.402;2023-07-09T04:20:28;3.85;;;3.50;;
31298;SDS011;17927;52.350;13.402;2023-07-09T04:22:53;5.60;;;3.70;;
31298;SDS011;17927;52.350;13.402;2023-07-09T04:25:19;3.85;;;3.13;;
31298;SDS011;17927;52.350;13.402;2023-07-09T04:27:44;3.63;;;3.30;;
31298;SDS011;17927;52.350;13.402;2023-07-09T04:30:10;3.90;;;3.00;;
31298;SDS011;17927;52.350;13.402;2023-07-09T04:32:37;6.03;;;3.33;;
31298;SDS011;17927;52.350;13.402;2023-07-09T04:35:03;3.65;;;3.40;;
31298;SDS011;17927;52.350;13.402;2023-07-09T04:37:31;4.40;;;3.38;;
31298;SDS011;17927;52.350;13.402;2023-07-09T04:39:57;3.75;;;3.17;;
31298;SDS011;17927;52.350;13.402;2023-07-09T04:42:22;4.03;;;3.28;;
31298;SDS011;17927;52.350;13.402;2023-07-09T04:44:47;3.92;;;3.42;;
31298;SDS011;17927;52.350;13.402;2023-07-09T04:47:12;5.07;;;3.10;;
31298;SDS011;17927;52.350;13.402;2023-07-09T04:49:38;4.85;;;3.40;;
31298;SDS011;17927;52.350;13.402;2023-07-09T04:52:03;3.35;;;3.10;;
31298;SDS011;17927;52.350;13.402;2023-07-09T04:54:29;3.75;;;3.38;;
31298;SDS011;17927;52.350;13.402;2023-07-09T04:56:55;6.22;;;3.47;;
31298;SDS011;17927;52.350;13.402;2023-07-09T04:59:21;3.90;;;2.95;;
31298;SDS011;17927;52.350;13.402;2023-07-09T05:01:46;4.47;;;3.05;;
31298;SDS011;17927;52.350;13.402;2023-07-09T05:04:11;3.03;;;2.78;;
31298;SDS011;17927;52.350;13.402;2023-07-09T05:06:36;3.47;;;3.17;;
31298;SDS011;17927;52.350;13.402;2023-07-09T05:09:02;3.38;;;3.17;;
31298;SDS011;17927;52.350;13.402;2023-07-09T05:11:27;3.30;;;3.00;;
31298;SDS011;17927;52.350;13.402;2023-07-09T05:13:52;3.47;;;3.05;;
31298;SDS011;17927;52.350;13.402;2023-07-09T05:16:18;3.00;;;2.80;;
31298;SDS011;17927;52.350;13.402;2023-07-09T05:18:44;8.07;;;3.15;;
31298;SDS011;17927;52.350;13.402;2023-07-09T05:21:10;3.53;;;3.00;;
31298;SDS011;17927;52.350;13.402;2023-07-09T05:23:35;3.58;;;2.72;;
31298;SDS011;17927;52.350;13.402;2023-07-09T05:26:01;3.70;;;3.10;;
31298;SDS011;17927;52.350;13.402;2023-07-09T05:28:28;5.05;;;3.17;;
31298;SDS011;17927;52.350;13.402;2023-07-09T05:30:54;3.53;;;3.22;;
31298;SDS011;17927;52.350;13.402;2023-07-09T05:33:19;3.47;;;3.17;;
31298;SDS011;17927;52.350;13.402;2023-07-09T05:35:45;2.90;;;2.70;;
31298;SDS011;17927;52.350;13.402;2023-07-09T05:38:14;3.72;;;3.42;;
31298;SDS011;17927;52.350;13.402;2023-07-09T05:40:40;3.63;;;3.33;;
31298;SDS011;17927;52.350;13.402;2023-07-09T05:43:06;3.88;;;3.30;;
31298;SDS011;17927;52.350;13.402;2023-07-09T05:45:31;3.38;;;3.08;;
31298;SDS011;17927;52.350;13.402;2023-07-09T05:47:57;4.28;;;3.58;;
31298;SDS011;17927;52.350;13.402;2023-07-09T05:50:23;3.15;;;2.95;;
31298;SDS011;17927;52.350;13.402;2023-07-09T05:52:49;2.97;;;2.78;;
31298;SDS011;17927;52.350;13.402;2023-07-09T05:55:14;3.10;;;2.80;;
31298;SDS011;17927;52.350;13.402;2023-07-09T05:57:40;3.58;;;3.20;;
31298;SDS011;17927;52.350;13.402;2023-07-09T06:00:05;4.38;;;3.30;;
31298;SDS011;17927;52.350;13.402;2023-07-09T06:02:33;4.90;;;3.10;;
31298;SDS011;17927;52.350;13.402;2023-07-09T06:04:58;3.50;;;3.00;;
31298;SDS011;17927;52.350;13.402;2023-07-09T06:07:23;3.90;;;3.38;;
31298;SDS011;17927;52.350;13.402;2023-07-09T06:09:48;3.75;;;3.40;;
31298;SDS011;17927;52.350;13.402;2023-07-09T06:12:14;5.10;;;3.00;;
31298;SDS011;17927;52.350;13.402;2023-07-09T06:14:39;3.47;;;3.22;;
31298;SDS011;17927;52.350;13.402;2023-07-09T06:17:04;5.05;;;4.65;;
31298;SDS011;17927;52.350;13.402;2023-07-09T06:19:30;4.15;;;3.08;;
31298;SDS011;17927;52.350;13.402;2023-07-09T06:21:55;3.35;;;3.15;;
31298;SDS011;17927;52.350;13.402;2023-07-09T06:24:21;2.97;;;2.78;;
31298;SDS011;17927;52.350;13.402;2023-07-09T06:26:47;3.60;;;3.35;;
31298;SDS011;17927;52.350;13.402;2023-07-09T06:29:12;6.78;;;3.45;;
31298;SDS011;17927;52.350;13.402;2023-07-09T06:31:37;3.22;;;2.95;;
31298;SDS011;17927;52.350;13.402;2023-07-09T06:34:05;5.05;;;4.63;;
31298;SDS011;17927;52.350;13.402;2023-07-09T06:36:32;3.47;;;3.28;;
31298;SDS011;17927;52.350;13.402;2023-07-09T06:38:57;5.30;;;4.85;;
31298;SDS011;17927;52.350;13.402;2023-07-09T06:41:23;6.88;;;4.28;;
31298;SDS011;17927;52.350;13.402;2023-07-09T06:43:49;3.35;;;3.05;;
31298;SDS011;17927;52.350;13.402;2023-07-09T06:46:14;4.35;;;2.97;;
31298;SDS011;17927;52.350;13.402;2023-07-09T06:48:40;6.75;;;6.25;;
31298;SDS011;17927;52.350;13.402;2023-07-09T06:51:05;3.85;;;3.65;;
31298;SDS011;17927;52.350;13.402;2023-07-09T06:53:31;5.00;;;3.45;;
31298;SDS011;17927;52.350;13.402;2023-07-09T06:55:57;3.63;;;3.08;;
31298;SDS011;17927;52.350;13.402;2023-07-09T06:58:24;2.92;;;2.72;;
31298;SDS011;17927;52.350;13.402;2023-07-09T07:00:52;4.13;;;3.53;;
31298;SDS011;17927;52.350;13.402;2023-07-09T07:03:18;3.92;;;3.63;;
31298;SDS011;17927;52.350;13.402;2023-07-09T07:05:44;3.88;;;3.58;;
31298;SDS011;17927;52.350;13.402;2023-07-09T07:08:10;3.70;;;3.40;;
31298;SDS011;17927;52.350;13.402;2023-07-09T07:10:35;3.35;;;3.00;;
31298;SDS011;17927;52.350;13.402;2023-07-09T07:13:01;3.00;;;2.80;;
31298;SDS011;17927;52.350;13.402;2023-07-09T07:15:27;3.42;;;3.13;;
31298;SDS011;17927;52.350;13.402;2023-07-09T07:17:52;4.32;;;3.92;;
31298;SDS011;17927;52.350;13.402;2023-07-09T07:20:18;3.00;;;2.78;;
31298;SDS011;17927;52.350;13.402;2023-07-09T07:22:43;3.53;;;3.22;;
31298;SDS011;17927;52.350;13.402;2023-07-09T07:25:08;3.80;;;3.05;;
31298;SDS011;17927;52.350;13.402;2023-07-09T07:27:34;6.72;;;3.15;;
31298;SDS011;17927;52.350;13.402;2023-07-09T07:30:01;4.15;;;3.63;;
31298;SDS011;17927;52.350;13.402;2023-07-09T07:32:26;4.00;;;3.60;;
31298;SDS011;17927;52.350;13.402;2023-07-09T07:34:51;4.20;;;3.65;;
31298;SDS011;17927;52.350;13.402;2023-07-09T07:37:19;3.67;;;3.45;;
31298;SDS011;17927;52.350;13.402;2023-07-09T07:39:45;3.40;;;3.13;;
31298;SDS011;17927;52.350;13.402;2023-07-09T07:42:11;3.15;;;2.95;;
31298;SDS011;17927;52.350;13.402;2023-07-09T07:44:37;4.13;;;3.75;;
31298;SDS011;17927;52.350;13.402;2023-07-09T07:47:02;7.88;;;7.28;;
31298;SDS011;17927;52.350;13.402;2023-07-09T07:49:28;7.90;;;6.63;;
31298;SDS011;17927;52.350;13.402;2023-07-09T07:51:53;4.53;;;4.13;;
31298;SDS011;17927;52.350;13.402;2023-07-09T07:54:18;6.30;;;5.80;;
31298;SDS011;17927;52.350;13.402;2023-07-09T07:56:43;8.57;;;7.20;;
31298;SDS011;17927;52.350;13.402;2023-07-09T07:59:09;5.55;;;5.15;;
31298;SDS011;17927;52.350;13.402;2023-07-09T08:01:34;6.82;;;6.30;;
31298;SDS011;17927;52.350;13.402;2023-07-09T08:04:01;4.63;;;4.15;;
31298;SDS011;17927;52.350;13.402;2023-07-09T08:06:30;4.35;;;3.92;;
31298;SDS011;17927;52.350;13.402;2023-07-09T08:08:56;5.85;;;3.28;;
31298;SDS011;17927;52.350;13.402;2023-07-09T08:11:21;4.00;;;3.47;;
31298;SDS011;17927;52.350;13.402;2023-07-09T08:13:47;3.60;;;3.10;;
31298;SDS011;17927;52.350;13.402;2023-07-09T08:16:12;3.20;;;2.90;;
31298;SDS011;17927;52.350;13.402;2023-07-09T08:18:37;4.03;;;3.40;;
31298;SDS011;17927;52.350;13.402;2023-07-09T08:21:03;4.20;;;3.80;;
31298;SDS011;17927;52.350;13.402;2023-07-09T08:23:29;3.92;;;3.72;;
31298;SDS011;17927;52.350;13.402;2023-07-09T08:25:54;4.13;;;3.45;;
31298;SDS011;17927;52.350;13.402;2023-07-09T08:28:23;3.80;;;3.60;;
31298;SDS011;17927;52.350;13.402;2023-07-09T08:30:51;3.53;;;3.17;;
31298;SDS011;17927;52.350;13.402;2023-07-09T08:33:17;4.65;;;4.28;;
31298;SDS011;17927;52.350;13.402;2023-07-09T08:35:43;9.15;;;3.50;;
31298;SDS011;17927;52.350;13.402;2023-07-09T08:38:08;4.20;;;3.80;;
31298;SDS011;17927;52.350;13.402;2023-07-09T08:40:38;6.30;;;4.35;;
31298;SDS011;17927;52.350;13.402;2023-07-09T08:43:10;3.63;;;3.42;;
31298;SDS011;17927;52.350;13.402;2023-07-09T08:45:50;3.53;;;3.17;;
31298;SDS011;17927;52.350;13.402;2023-07-09T08:48:34;9.00;;;4.38;;
31298;SDS011;17927;52.350;13.402;2023-07-09T08:51:10;3.60;;;3.30;;
31298;SDS011;17927;52.350;13.402;2023-07-09T08:53:44;3.90;;;3.50;;
31298;SDS011;17927;52.350;13.402;2023-07-09T08:56:15;4.40;;;3.00;;
31298;SDS011;17927;52.350;13.402;2023-07-09T08:58:41;4.55;;;3.38;;
31298;SDS011;17927;52.350;13.402;2023-07-09T09:01:16;5.15;;;2.97;;
31298;SDS011;17927;52.350;13.402;2023-07-09T09:03:46;3.67;;;3.25;;
31298;SDS011;17927;52.350;13.402;2023-07-09T09:06:14;2.83;;;2.63;;
31298;SDS011;17927;52.350;13.402;2023-07-09T09:11:31;2.58;;;2.42;;
31298;SDS011;17927;52.350;13.402;2023-07-09T09:14:09;2.22;;;2.08;;
31298;SDS011;17927;52.350;13.402;2023-07-09T09:16:44;2.45;;;2.30;;
31298;SDS011;17927;52.350;13.402;2023-07-09T09:19:31;2.50;;;2.30;;
31298;SDS011;17927;52.350;13.402;2023-07-09T09:22:02;2.55;;;2.35;;
31298;SDS011;17927;52.350;13.402;2023-07-09T09:24:31;6.43;;;2.22;;
31298;SDS011;17927;52.350;13.402;2023-07-09T09:27:01;3.80;;;2.38;;
31298;SDS011;17927;52.350;13.402;2023-07-09T09:29:27;2.65;;;2.45;;
31298;SDS011;17927;52.350;13.402;2023-07-09T09:31:56;4.47;;;3.75;;
31298;SDS011;17927;52.350;13.402;2023-07-09T09:34:27;5.07;;;3.00;;
31298;SDS011;17927;52.350;13.402;2023-07-09T09:36:54;2.67;;;2.42;;
31298;SDS011;17927;52.350;13.402;2023-07-09T09:39:23;3.67;;;2.50;;
31298;SDS011;17927;52.350;13.402;2023-07-09T09:41:51;2.58;;;2.38;;
31298;SDS011;17927;52.350;13.402;2023-07-09T09:44:20;2.97;;;2.67;;
31298;SDS011;17927;52.350;13.402;2023-07-09T09:46:50;2.90;;;2.70;;
31298;SDS011;17927;52.350;13.402;2023-07-09T09:49:16;2.75;;;2.60;;
31298;SDS011;17927;52.350;13.402;2023-07-09T09:51:44;2.58;;;2.33;;
31298;SDS011;17927;52.350;13.402;2023-07-09T09:54:14;2.95;;;2.65;;
31298;SDS011;17927;52.350;13.402;2023-07-09T09:56:42;4.18;;;2.83;;
31298;SDS011;17927;52.350;13.402;2023-07-09T09:59:19;2.65;;;2.45;;
31298;SDS011;17927;52.350;13.402;2023-07-09T10:01:46;2.53;;;2.30;;
31298;SDS011;17927;52.350;13.402;2023-07-09T10:04:16;2.30;;;2.20;;
31298;SDS011;17927;52.350;13.402;2023-07-09T10:06:46;3.10;;;2.78;;
31298;SDS011;17927;52.350;13.402;2023-07-09T10:09:33;2.80;;;2.60;;
31298;SDS011;17927;52.350;13.402;2023-07-09T10:12:16;2.97;;;2.78;;
31298;SDS011;17927;52.350;13.402;2023-07-09T10:14:58;2.72;;;2.40;;
31298;SDS011;17927;52.350;13.402;2023-07-09T10:17:40;2.97;;;2.78;;
31298;SDS011;17927;52.350;13.402;2023-07-09T10:20:21;3.78;;;2.50;;
31298;SDS011;17927;52.350;13.402;2023-07-09T10:22:53;2.80;;;2.55;;
31298;SDS011;17927;52.350;13.402;2023-07-09T10:33:23;2.80;;;2.60;;
31298;SDS011;17927;52.350;13.402;2023-07-09T10:36:01;3.88;;;2.80;;
31298;SDS011;17927;52.350;13.402;2023-07-09T10:38:55;6.25;;;2.65;;
31298;SDS011;17927;52.350;13.402;2023-07-09T10:41:28;2.80;;;2.60;;
31298;SDS011;17927;52.350;13.402;2023-07-09T10:44:01;2.90;;;2.58;;
31298;SDS011;17927;52.350;13.402;2023-07-09T10:46:37;3.35;;;3.13;;
31298;SDS011;17927;52.350;13.402;2023-07-09T10:49:05;4.22;;;2.92;;
31298;SDS011;17927;52.350;13.402;2023-07-09T10:54:14;2.40;;;2.30;;
31298;SDS011;17927;52.350;13.402;2023-07-09T10:56:47;6.03;;;2.92;;
31298;SDS011;17927;52.350;13.402;2023-07-09T10:59:22;2.90;;;2.70;;
31298;SDS011;17927;52.350;13.402;2023-07-09T11:01:58;2.90;;;2.70;;
31298;SDS011;17927;52.350;13.402;2023-07-09T11:04:46;2.90;;;2.70;;
31298;SDS011;17927;52.350;13.402;2023-07-09T11:07:19;2.92;;;2.65;;
31298;SDS011;17927;52.350;13.402;2023-07-09T11:09:50;2.92;;;2.72;;
31298;SDS011;17927;52.350;13.402;2023-07-09T11:12:23;3.25;;;3.03;;
31298;SDS011;17927;52.350;13.402;2023-07-09T11:14:59;3.45;;;2.75;;
31298;SDS011;17927;52.350;13.402;2023-07-09T11:17:29;3.08;;;2.78;;
31298;SDS011;17927;52.350;13.402;2023-07-09T11:19:56;3.15;;;2.83;;
31298;SDS011;17927;52.350;13.402;2023-07-09T11:25:05;4.88;;;2.90;;
31298;SDS011;17927;52.350;13.402;2023-07-09T11:27:33;5.00;;;2.90;;
31298;SDS011;17927;52.350;13.402;2023-07-09T11:30:19;3.85;;;3.20;;
31298;SDS011;17927;52.350;13.402;2023-07-09T11:32:58;2.90;;;2.70;;
31298;SDS011;17927;52.350;13.402;2023-07-09T11:35:27;3.00;;;2.80;;
31298;SDS011;17927;52.350;13.402;2023-07-09T11:37:53;2.90;;;2.65;;
31298;SDS011;17927;52.350;13.402;2023-07-09T11:40:21;6.45;;;2.72;;
31298;SDS011;17927;52.350;13.402;2023-07-09T11:42:49;3.33;;;3.13;;
31298;SDS011;17927;52.350;13.402;2023-07-09T11:45:21;3.38;;;3.08;;
31298;SDS011;17927;52.350;13.402;2023-07-09T11:47:53;2.90;;;2.70;;
31298;SDS011;17927;52.350;13.402;2023-07-09T11:50:30;3.67;;;3.35;;
31298;SDS011;17927;52.350;13.402;2023-07-09T11:55:29;3.58;;;2.28;;
31298;SDS011;17927;52.350;13.402;2023-07-09T11:58:02;2.55;;;2.35;;
31298;SDS011;17927;52.350;13.402;2023-07-09T12:00:30;6.72;;;2.90;;
31298;SDS011;17927;52.350;13.402;2023-07-09T12:03:03;3.17;;;2.88;;
31298;SDS011;17927;52.350;13.402;2023-07-09T12:05:29;3.25;;;3.05;;
31298;SDS011;17927;52.350;13.402;2023-07-09T12:07:55;2.60;;;2.40;;
31298;SDS011;17927;52.350;13.402;2023-07-09T12:10:24;3.28;;;3.00;;
31298;SDS011;17927;52.350;13.402;2023-07-09T12:12:54;3.15;;;2.95;;
31298;SDS011;17927;52.350;13.402;2023-07-09T12:15:22;2.97;;;2.78;;
31298;SDS011;17927;52.350;13.402;2023-07-09T12:17:56;2.90;;;2.70;;
31298;SDS011;17927;52.350;13.402;2023-07-09T12:20:23;3.33;;;3.05;;
31298;SDS011;17927;52.350;13.402;2023-07-09T12:22:48;3.17;;;2.95;;
31298;SDS011;17927;52.350;13.402;2023-07-09T12:25:18;3.35;;;3.05;;
31298;SDS011;17927;52.350;13.402;2023-07-09T12:27:46;3.20;;;3.00;;
31298;SDS011;17927;52.350;13.402;2023-07-09T12:30:11;3.47;;;3.17;;
31298;SDS011;17927;52.350;13.402;2023-07-09T12:32:47;4.35;;;3.00;;
31298;SDS011;17927;52.350;13.402;2023-07-09T12:35:19;3.63;;;3.33;;
31298;SDS011;17927;52.350;13.402;2023-07-09T12:37:46;3.25;;;2.67;;
31298;SDS011;17927;52.350;13.402;2023-07-09T12:40:17;2.65;;;2.53;;
31298;SDS011;17927;52.350;13.402;2023-07-09T12:42:46;2.85;;;2.67;;
31298;SDS011;17927;52.350;13.402;2023-07-09T12:45:15;2.53;;;2.33;;
31298;SDS011;17927;52.350;13.402;2023-07-09T12:47:44;3.75;;;3.40;;
31298;SDS011;17927;52.350;13.402;2023-07-09T12:50:27;2.53;;;2.35;;
31298;SDS011;17927;52.350;13.402;2023-07-09T12:52:56;2.97;;;2.50;;
31298;SDS011;17927;52.350;13.402;2023-07-09T12:55:26;3.30;;;2.40;;
31298;SDS011;17927;52.350;13.402;2023-07-09T12:57:56;2.50;;;2.30;;
31298;SDS011;17927;52.350;13.402;2023-07-09T13:00:22;3.33;;;2.50;;
31298;SDS011;17927;52.350;13.402;2023-07-09T13:02:54;7.90;;;2.80;;
31298;SDS011;17927;52.350;13.402;2023-07-09T13:05:23;2.35;;;2.25;;
31298;SDS011;17927;52.350;13.402;2023-07-09T13:07:50;2.40;;;2.30;;
31298;SDS011;17927;52.350;13.402;2023-07-09T13:12:57;3.10;;;2.90;;
31298;SDS011;17927;52.350;13.402;2023-07-09T13:15:28;2.70;;;2.60;;
31298;SDS011;17927;52.350;13.402;2023-07-09T13:18:00;2.58;;;2.47;;
31298;SDS011;17927;52.350;13.402;2023-07-09T13:20:29;3.53;;;2.35;;
31298;SDS011;17927;52.350;13.402;2023-07-09T13:22:56;2.90;;;2.70;;
31298;SDS011;17927;52.350;13.402;2023-07-09T13:25:22;2.75;;;2.55;;
31298;SDS011;17927;52.350;13.402;2023-07-09T13:27:47;2.53;;;2.42;;
31298;SDS011;17927;52.350;13.402;2023-07-09T13:30:13;2.60;;;2.50;;
31298;SDS011;17927;52.350;13.402;2023-07-09T13:32:38;3.03;;;2.40;;
31298;SDS011;17927;52.350;13.402;2023-07-09T13:35:13;2.67;;;2.58;;
31298;SDS011;17927;52.350;13.402;2023-07-09T13:37:42;2.92;;;2.72;;
31298;SDS011;17927;52.350;13.402;2023-07-09T13:40:09;2.53;;;2.42;;
31298;SDS011;17927;52.350;13.402;2023-07-09T13:42:36;2.78;;;2.60;;
31298;SDS011;17927;52.350;13.402;2023-07-09T13:45:01;3.43;;;2.30;;
31298;SDS011;17927;52.350;13.402;2023-07-09T13:47:27;2.80;;;2.60;;
31298;SDS011;17927;52.350;13.402;2023-07-09T13:49:52;3.27;;;2.53;;
31298;SDS011;17927;52.350;13.402;2023-07-09T13:52:19;7.83;;;7.17;;
31298;SDS011;17927;52.350;13.402;2023-07-09T13:54:46;18.15;;;15.65;;
31298;SDS011;17927;52.350;13.402;2023-07-09T13:57:19;13.55;;;10.13;;
31298;SDS011;17927;52.350;13.402;2023-07-09T13:59:46;13.07;;;11.88;;
31298;SDS011;17927;52.350;13.402;2023-07-09T14:02:17;5.05;;;4.75;;
31298;SDS011;17927;52.350;13.402;2023-07-09T14:04:56;3.45;;;3.25;;
31298;SDS011;17927;52.350;13.402;2023-07-09T14:07:33;2.85;;;2.65;;
31298;SDS011;17927;52.350;13.402;2023-07-09T14:10:00;7.37;;;6.77;;
31298;SDS011;17927;52.350;13.402;2023-07-09T14:12:27;5.03;;;3.90;;
31298;SDS011;17927;52.350;13.402;2023-07-09T14:14:53;3.17;;;2.97;;
31298;SDS011;17927;52.350;13.402;2023-07-09T14:17:24;5.07;;;4.78;;
31298;SDS011;17927;52.350;13.402;2023-07-09T14:19:50;3.90;;;3.50;;
31298;SDS011;17927;52.350;13.402;2023-07-09T14:22:34;3.90;;;2.78;;
31298;SDS011;17927;52.350;13.402;2023-07-09T14:25:02;2.97;;;2.78;;
31298;SDS011;17927;52.350;13.402;2023-07-09T14:27:28;2.70;;;2.60;;
31298;SDS011;17927;52.350;13.402;2023-07-09T14:29:53;4.30;;;4.00;;
31298;SDS011;17927;52.350;13.402;2023-07-09T14:32:37;2.72;;;2.53;;
31298;SDS011;17927;52.350;13.402;2023-07-09T14:35:24;2.88;;;2.13;;
31298;SDS011;17927;52.350;13.402;2023-07-09T14:37:50;2.85;;;2.08;;
31298;SDS011;17927;52.350;13.402;2023-07-09T14:40:17;4.90;;;2.53;;
31298;SDS011;17927;52.350;13.402;2023-07-09T14:42:45;2.83;;;2.35;;
31298;SDS011;17927;52.350;13.402;2023-07-09T14:45:15;2.97;;;2.78;;
31298;SDS011;17927;52.350;13.402;2023-07-09T14:47:46;4.50;;;2.70;;
31298;SDS011;17927;52.350;13.402;2023-07-09T14:50:13;2.75;;;2.38;;
31298;SDS011;17927;52.350;13.402;2023-07-09T14:52:38;2.47;;;2.35;;
31298;SDS011;17927;52.350;13.402;2023-07-09T14:55:07;2.45;;;2.25;;
31298;SDS011;17927;52.350;13.402;2023-07-09T14:57:38;2.75;;;2.30;;
31298;SDS011;17927;52.350;13.402;2023-07-09T15:00:03;3.27;;;2.70;;
31298;SDS011;17927;52.350;13.402;2023-07-09T15:02:39;5.00;;;2.67;;
31298;SDS011;17927;52.350;13.402;2023-07-09T15:05:11;3.25;;;2.95;;
31298;SDS011;17927;52.350;13.402;2023-07-09T15:07:40;4.03;;;2.42;;